createdAt,value
2022-12-12T00:01:55.165Z,3.32
2022-12-12T00:04:23.347Z,3.40
2022-12-12T00:06:51.454Z,3.37
2022-12-12T00:09:19.525Z,3.31
2022-12-12T00:11:47.642Z,3.35
2022-12-12T00:14:15.744Z,3.31
2022-12-12T00:16:43.848Z,3.22
2022-12-12T00:19:13.311Z,3.18
2022-12-12T00:21:41.389Z,3.22
2022-12-12T00:24:10.014Z,3.29
2022-12-12T00:26:38.227Z,3.36
2022-12-12T00:29:06.623Z,3.31
2022-12-12T00:31:35.015Z,3.39
2022-12-12T00:34:03.323Z,3.41
2022-12-12T00:36:33.430Z,3.41
2022-12-12T00:39:01.768Z,3.44
2022-12-12T00:41:29.906Z,3.44
2022-12-12T00:43:58.120Z,3.44
2022-12-12T00:46:26.958Z,3.48
2022-12-12T00:48:57.721Z,3.48
2022-12-12T00:51:28.345Z,3.54
2022-12-12T00:53:59.249Z,3.50
2022-12-12T00:56:30.815Z,3.46
2022-12-12T00:58:59.126Z,3.40
2022-12-12T01:01:30.856Z,3.47
2022-12-12T01:03:59.888Z,3.43
2022-12-12T01:06:29.775Z,3.42
2022-12-12T01:09:00.445Z,3.40
2022-12-12T01:11:28.906Z,3.49
2022-12-12T01:13:57.849Z,3.62
2022-12-12T01:16:26.102Z,3.44
2022-12-12T01:18:54.448Z,3.56
2022-12-12T01:21:23.307Z,3.58
2022-12-12T01:23:51.893Z,3.61
2022-12-12T01:26:24.628Z,3.59
2022-12-12T01:28:53.611Z,3.55
2022-12-12T01:31:22.474Z,3.49
2022-12-12T01:33:50.736Z,3.50
2022-12-12T01:36:21.904Z,3.45
2022-12-12T01:38:54.190Z,3.43
2022-12-12T01:41:24.428Z,3.43
2022-12-12T01:43:52.833Z,3.47
2022-12-12T01:46:44.221Z,3.40
2022-12-12T01:49:23.630Z,3.39
2022-12-12T01:51:55.952Z,3.27
2022-12-12T01:54:28.676Z,3.36
2022-12-12T01:56:59.629Z,3.31
2022-12-12T01:59:29.250Z,3.31
2022-12-12T02:01:57.755Z,3.25
2022-12-12T02:04:28.638Z,3.37
2022-12-12T02:06:58.040Z,3.41
2022-12-12T02:09:27.749Z,3.31
2022-12-12T02:11:59.416Z,3.26
2022-12-12T02:14:31.108Z,3.27
2022-12-12T02:17:30.176Z,3.34
2022-12-12T02:20:41.067Z,3.32
2022-12-12T02:24:12.353Z,3.30
2022-12-12T02:27:34.259Z,3.25
2022-12-12T02:30:12.052Z,3.15
2022-12-12T02:33:07.749Z,3.13
2022-12-12T02:35:50.199Z,3.08
2022-12-12T02:38:28.861Z,3.02
2022-12-12T02:41:11.583Z,3.03
2022-12-12T02:43:51.844Z,2.96
2022-12-12T02:46:31.254Z,2.92
2022-12-12T02:49:04.704Z,2.89
2022-12-12T02:51:34.364Z,2.82
2022-12-12T02:54:04.827Z,2.77
2022-12-12T02:56:51.513Z,2.68
2022-12-12T02:59:26.985Z,2.66
2022-12-12T03:02:38.074Z,2.66
2022-12-12T03:05:41.559Z,2.62
2022-12-12T03:08:30.175Z,2.56
2022-12-12T03:11:02.364Z,2.54
2022-12-12T03:13:41.445Z,2.51
2022-12-12T03:16:27.518Z,2.43
2022-12-12T03:19:02.386Z,2.39
2022-12-12T03:21:40.775Z,2.50
2022-12-12T03:24:21.519Z,2.50
2022-12-12T03:26:56.802Z,2.46
2022-12-12T03:29:30.115Z,2.45
2022-12-12T03:32:04.961Z,2.32
2022-12-12T03:34:38.800Z,2.29
2022-12-12T03:37:14.203Z,2.24
2022-12-12T03:39:48.476Z,2.11
2022-12-12T03:42:23.383Z,2.05
2022-12-12T03:44:59.279Z,1.96
2022-12-12T03:47:33.756Z,1.96
2022-12-12T03:50:08.912Z,1.93
2022-12-12T03:52:44.450Z,1.93
2022-12-12T03:55:17.848Z,2.02
2022-12-12T03:57:54.064Z,2.11
2022-12-12T04:00:22.285Z,2.07
2022-12-12T04:03:00.657Z,2.01
2022-12-12T04:06:00.943Z,1.83
2022-12-12T04:08:31.591Z,1.78
2022-12-12T04:11:25.487Z,1.64
2022-12-12T04:14:07.687Z,1.72
2022-12-12T04:16:40.813Z,1.75
2022-12-12T04:19:34.654Z,1.70
2022-12-12T04:22:27.354Z,1.69
2022-12-12T04:25:01.799Z,1.66
2022-12-12T04:27:36.503Z,1.65
2022-12-12T04:30:08.614Z,1.65
2022-12-12T04:32:43.268Z,1.59
2022-12-12T04:35:15.218Z,1.64
2022-12-12T04:37:47.503Z,1.55
2022-12-12T04:40:23.081Z,1.47
2022-12-12T04:42:56.283Z,1.62
2022-12-12T04:45:29.816Z,1.51
2022-12-12T04:47:59.678Z,1.56
2022-12-12T04:50:31.580Z,1.47
2022-12-12T04:53:02.885Z,1.48
2022-12-12T04:55:35.469Z,1.56
2022-12-12T04:58:05.602Z,1.51
2022-12-12T05:00:42.574Z,1.47
2022-12-12T05:03:19.761Z,1.41
2022-12-12T05:05:55.374Z,1.49
2022-12-12T05:08:30.539Z,1.45
2022-12-12T05:11:03.324Z,1.47
2022-12-12T05:13:33.869Z,1.40
2022-12-12T05:16:05.049Z,1.49
2022-12-12T05:18:33.151Z,1.49
2022-12-12T05:21:01.237Z,1.54
2022-12-12T05:23:34.459Z,1.53
2022-12-12T05:26:10.053Z,1.53
2022-12-12T05:28:38.676Z,1.55
2022-12-12T05:31:06.988Z,1.56
2022-12-12T05:33:35.539Z,1.52
2022-12-12T05:36:03.693Z,1.47
2022-12-12T05:38:31.774Z,1.42
2022-12-12T05:40:59.939Z,1.40
2022-12-12T05:43:29.399Z,1.49
2022-12-12T05:45:57.657Z,1.52
2022-12-12T05:48:25.873Z,1.58
2022-12-12T05:50:54.439Z,1.57
2022-12-12T05:53:23.337Z,1.63
2022-12-12T05:55:52.246Z,1.60
2022-12-12T05:58:20.698Z,1.57
2022-12-12T06:00:51.469Z,1.58
2022-12-12T06:03:20.464Z,1.66
2022-12-12T06:05:48.766Z,1.61
2022-12-12T06:08:20.906Z,1.59
2022-12-12T06:10:51.713Z,1.58
2022-12-12T06:13:19.845Z,1.57
2022-12-12T06:15:49.387Z,1.70
2022-12-12T06:18:18.035Z,1.70
2022-12-12T06:20:46.164Z,1.69
2022-12-12T06:23:14.290Z,1.71
2022-12-12T06:25:42.472Z,1.71
2022-12-12T06:28:10.649Z,1.82
2022-12-12T06:30:39.445Z,1.71
2022-12-12T06:33:08.938Z,1.73
2022-12-12T06:35:37.182Z,1.87
2022-12-12T06:38:05.344Z,1.82
2022-12-12T06:40:33.674Z,1.84
2022-12-12T06:43:01.836Z,1.83
2022-12-12T06:45:30.370Z,1.84
2022-12-12T06:47:59.048Z,1.96
2022-12-12T06:50:28.600Z,1.99
2022-12-12T06:52:56.737Z,1.95
2022-12-12T06:55:24.855Z,1.91
2022-12-12T06:57:52.993Z,1.97
2022-12-12T07:00:21.944Z,1.92
2022-12-12T07:02:50.641Z,1.88
2022-12-12T07:05:19.113Z,1.87
2022-12-12T07:07:48.544Z,1.91
2022-12-12T07:10:21.097Z,1.91
2022-12-12T07:12:53.301Z,1.84
2022-12-12T07:15:24.268Z,1.86
2022-12-12T07:17:54.154Z,1.77
2022-12-12T07:20:22.321Z,1.76
2022-12-12T07:22:51.819Z,1.80
2022-12-12T07:25:19.866Z,1.89
2022-12-12T07:27:48.020Z,1.86
2022-12-12T07:30:16.119Z,1.88
2022-12-12T07:32:44.248Z,1.88
2022-12-12T07:35:12.580Z,1.79
2022-12-12T07:37:40.853Z,1.82
2022-12-12T07:40:12.478Z,1.79
2022-12-12T07:42:40.608Z,1.91
2022-12-12T07:45:16.467Z,1.90
2022-12-12T07:47:46.569Z,1.89
2022-12-12T07:50:15.409Z,1.89
2022-12-12T07:52:43.583Z,1.85
2022-12-12T07:55:13.642Z,2.01
2022-12-12T07:57:42.111Z,2.00
2022-12-12T08:00:13.497Z,1.93
2022-12-12T08:02:41.820Z,1.93
2022-12-12T08:05:11.010Z,1.97
2022-12-12T08:07:39.415Z,2.02
2022-12-12T08:10:08.156Z,2.02
2022-12-12T08:12:37.665Z,2.03
2022-12-12T08:15:06.775Z,2.06
2022-12-12T08:17:35.395Z,2.01
2022-12-12T08:20:03.781Z,2.05
2022-12-12T08:22:31.897Z,2.15
2022-12-12T08:25:00.035Z,2.18
2022-12-12T08:27:28.311Z,2.13
2022-12-12T08:29:58.146Z,2.18
2022-12-12T08:32:26.278Z,2.14
2022-12-12T08:35:24.364Z,2.26
2022-12-12T08:37:52.472Z,2.15
2022-12-12T08:40:30.910Z,2.14
2022-12-12T08:43:01.776Z,2.12
2022-12-12T08:48:53.807Z,2.18
2022-12-12T08:51:22.207Z,2.24
2022-12-12T08:53:53.089Z,2.19
2022-12-12T08:56:23.750Z,2.17
2022-12-12T08:58:53.445Z,2.28
2022-12-12T09:01:26.833Z,2.35
2022-12-12T09:03:57.142Z,2.30
2022-12-12T09:06:26.976Z,2.26
2022-12-12T09:08:57.108Z,2.32
2022-12-12T09:11:26.112Z,2.47
2022-12-12T09:13:54.634Z,2.47
2022-12-12T09:16:26.440Z,2.45
2022-12-12T09:18:54.717Z,2.51
2022-12-12T09:21:23.106Z,2.45
2022-12-12T09:23:52.276Z,2.49
2022-12-12T09:26:20.388Z,2.52
2022-12-12T09:28:49.873Z,2.55
2022-12-12T09:31:19.431Z,2.56
2022-12-12T09:33:50.500Z,2.55
2022-12-12T09:36:21.248Z,2.59
2022-12-12T09:38:49.477Z,2.53
2022-12-12T09:41:20.381Z,2.66
2022-12-12T09:43:55.691Z,2.73
2022-12-12T09:46:35.254Z,2.71
2022-12-12T09:49:14.080Z,2.74
2022-12-12T09:51:45.579Z,2.76
2022-12-12T09:54:17.488Z,2.77
2022-12-12T09:56:59.538Z,2.83
2022-12-12T09:59:38.676Z,2.89
2022-12-12T10:02:38.254Z,3.11
2022-12-12T10:05:26.755Z,3.02
2022-12-12T10:08:06.395Z,3.11
2022-12-12T10:10:37.829Z,3.10
2022-12-12T10:13:15.317Z,3.10
2022-12-12T10:15:47.177Z,3.18
2022-12-12T10:18:22.631Z,3.27
2022-12-12T10:20:56.343Z,3.29
2022-12-12T10:23:34.831Z,3.32
2022-12-12T10:26:08.076Z,3.35
2022-12-12T10:28:37.225Z,3.41
2022-12-12T10:31:30.895Z,3.34
2022-12-12T10:34:31.018Z,3.37
2022-12-12T10:37:15.119Z,3.27
2022-12-12T10:39:53.916Z,3.37
2022-12-12T10:42:30.264Z,3.43
2022-12-12T10:45:29.998Z,3.47
2022-12-12T10:47:58.155Z,3.48
2022-12-12T10:50:33.778Z,3.48
2022-12-12T10:53:07.632Z,3.59
2022-12-12T10:55:43.188Z,3.60
2022-12-12T10:58:14.756Z,3.55
2022-12-12T11:00:45.587Z,3.61
2022-12-12T11:03:29.426Z,3.74
2022-12-12T11:05:58.578Z,3.80
2022-12-12T11:08:33.869Z,3.91
2022-12-12T11:11:18.918Z,4.08
2022-12-12T11:13:52.601Z,4.16
2022-12-12T11:16:24.962Z,4.12
2022-12-12T11:19:06.726Z,4.10
2022-12-12T11:21:37.728Z,4.14
2022-12-12T11:24:34.257Z,4.21
2022-12-12T11:27:06.333Z,4.21
2022-12-12T11:29:43.726Z,4.34
2022-12-12T11:32:15.982Z,4.46
2022-12-12T11:34:48.968Z,4.47
2022-12-12T11:37:20.492Z,4.49
2022-12-12T11:39:53.163Z,4.63
2022-12-12T11:42:25.955Z,4.73
2022-12-12T11:45:11.016Z,4.76
2022-12-12T11:47:42.377Z,4.85
2022-12-12T11:50:21.891Z,4.80
2022-12-12T11:52:52.415Z,4.82
2022-12-12T11:55:36.241Z,4.81
2022-12-12T11:58:18.026Z,4.84
2022-12-12T12:00:54.725Z,4.92
2022-12-12T12:04:03.718Z,4.92
2022-12-12T12:06:52.136Z,4.95
2022-12-12T12:09:30.226Z,5.06
2022-12-12T12:12:10.870Z,5.16
2022-12-12T12:14:58.163Z,5.24
2022-12-12T12:17:42.909Z,5.23
2022-12-12T12:20:23.177Z,5.13
2022-12-12T12:23:05.351Z,5.20
2022-12-12T12:25:46.911Z,5.25
2022-12-12T12:28:59.024Z,5.24
2022-12-12T12:31:37.536Z,5.28
2022-12-12T12:34:22.055Z,5.29
2022-12-12T12:37:10.865Z,5.37
2022-12-12T12:40:15.532Z,5.42
2022-12-12T12:43:19.742Z,5.38
2022-12-12T12:45:56.609Z,5.43
2022-12-12T12:48:34.445Z,5.45
2022-12-12T12:51:10.528Z,5.45
2022-12-12T12:53:44.454Z,5.51
2022-12-12T12:56:26.549Z,5.44
2022-12-12T12:58:59.283Z,5.54
2022-12-12T13:01:35.246Z,5.60
2022-12-12T13:04:13.189Z,5.55
2022-12-12T13:06:49.319Z,5.57
2022-12-12T13:09:29.836Z,5.53
2022-12-12T13:12:06.035Z,5.48
2022-12-12T13:14:43.529Z,5.48
2022-12-12T13:17:21.519Z,5.51
2022-12-12T13:19:53.439Z,5.46
2022-12-12T13:22:34.475Z,5.46
2022-12-12T13:25:12.533Z,5.50
2022-12-12T13:27:45.932Z,5.43
2022-12-12T13:30:23.394Z,5.42
2022-12-12T13:33:19.490Z,5.44
2022-12-12T13:35:51.121Z,5.36
2022-12-12T13:38:22.993Z,5.36
2022-12-12T13:41:02.359Z,5.46
2022-12-12T13:43:43.758Z,5.33
2022-12-12T13:46:38.946Z,5.34
2022-12-12T13:49:48.936Z,5.30
2022-12-12T13:52:29.692Z,5.25
2022-12-12T13:55:22.870Z,5.25
2022-12-12T13:58:19.651Z,5.30
2022-12-12T14:00:48.401Z,5.26
2022-12-12T14:03:31.469Z,5.27
2022-12-12T14:06:13.345Z,5.24
2022-12-12T14:08:52.592Z,5.25
2022-12-12T14:11:34.127Z,5.30
2022-12-12T14:14:09.886Z,5.29
2022-12-12T14:16:39.381Z,5.27
2022-12-12T14:19:21.983Z,5.38
2022-12-12T14:21:51.593Z,5.36
2022-12-12T14:25:05.727Z,5.33
2022-12-12T14:28:04.295Z,5.22
2022-12-12T14:30:53.382Z,5.20
2022-12-12T14:34:10.144Z,5.12
2022-12-12T14:37:37.023Z,5.01
2022-12-12T14:40:16.338Z,4.90
2022-12-12T14:43:20.073Z,4.94
2022-12-12T14:45:56.351Z,4.94
2022-12-12T14:48:27.811Z,4.96
2022-12-12T14:51:05.910Z,4.88
2022-12-12T14:53:46.777Z,4.87
2022-12-12T14:56:18.107Z,4.87
2022-12-12T14:58:57.215Z,4.83
2022-12-12T15:01:33.118Z,4.77
2022-12-12T15:04:05.001Z,4.74
2022-12-12T15:06:37.391Z,4.69
2022-12-12T15:09:21.217Z,4.67
2022-12-12T15:11:50.882Z,4.64
2022-12-12T15:14:22.128Z,4.57
2022-12-12T15:16:56.574Z,4.57
2022-12-12T15:19:30.247Z,4.54
2022-12-12T15:21:59.727Z,4.59
2022-12-12T15:24:37.736Z,4.66
2022-12-12T15:27:07.392Z,4.59
2022-12-12T15:29:38.428Z,4.45
2022-12-12T15:32:10.207Z,4.33
2022-12-12T15:34:42.257Z,4.26
2022-12-12T15:37:17.801Z,4.22
2022-12-12T15:39:47.714Z,4.18
2022-12-12T15:42:16.987Z,4.22
2022-12-12T15:44:47.247Z,4.28
2022-12-12T15:47:17.155Z,4.20
2022-12-12T15:49:47.293Z,4.19
2022-12-12T15:52:22.553Z,4.16
2022-12-12T15:54:55.577Z,4.18
2022-12-12T15:57:26.711Z,4.16
2022-12-12T15:59:57.505Z,4.10
2022-12-12T16:02:29.373Z,4.10
2022-12-12T16:05:06.391Z,4.09
2022-12-12T16:07:37.734Z,4.03
2022-12-12T16:10:24.124Z,3.97
2022-12-12T16:13:02.336Z,4.08
2022-12-12T16:15:35.567Z,4.03
2022-12-12T16:18:15.787Z,4.02
2022-12-12T16:20:48.519Z,4.06
2022-12-12T16:23:24.349Z,4.04
2022-12-12T16:25:54.266Z,3.95
2022-12-12T16:28:25.991Z,3.94
2022-12-12T16:31:01.313Z,3.85
2022-12-12T16:33:34.081Z,3.86
2022-12-12T16:36:05.175Z,3.87
2022-12-12T16:38:34.099Z,3.91
2022-12-12T16:41:07.319Z,3.86
2022-12-12T16:43:35.985Z,3.79
2022-12-12T16:46:04.475Z,3.81
2022-12-12T16:48:35.933Z,3.84
2022-12-12T16:51:07.213Z,3.86
2022-12-12T16:53:36.589Z,3.84
2022-12-12T16:56:07.029Z,3.80
2022-12-12T16:58:35.242Z,3.75
2022-12-12T17:01:03.602Z,3.70
2022-12-12T17:03:32.857Z,3.63
2022-12-12T17:06:01.746Z,3.59
2022-12-12T17:08:30.442Z,3.52
2022-12-12T17:11:10.704Z,3.56
2022-12-12T17:13:46.928Z,3.60
2022-12-12T17:16:15.476Z,3.62
2022-12-12T17:18:43.601Z,3.60
2022-12-12T17:21:11.878Z,3.58
2022-12-12T17:23:41.704Z,3.57
2022-12-12T17:26:09.937Z,3.46
2022-12-12T17:28:38.482Z,3.43
2022-12-12T17:31:10.863Z,3.45
2022-12-12T17:33:49.630Z,3.46
2022-12-12T17:36:18.841Z,3.43
2022-12-12T17:38:49.058Z,3.40
2022-12-12T17:41:21.138Z,3.36
2022-12-12T17:43:55.132Z,3.32
2022-12-12T17:46:27.747Z,3.28
2022-12-12T17:48:58.223Z,3.21
2022-12-12T17:51:26.840Z,3.20
2022-12-12T17:53:56.356Z,3.19
2022-12-12T17:56:27.051Z,3.17
2022-12-12T17:58:55.645Z,3.15
2022-12-12T18:01:27.619Z,3.14
2022-12-12T18:03:57.117Z,3.11
2022-12-12T18:06:28.371Z,3.04
2022-12-12T18:08:56.832Z,3.11
2022-12-12T18:11:27.801Z,3.06
2022-12-12T18:13:57.822Z,2.96
2022-12-12T18:16:30.829Z,2.91
2022-12-12T18:18:59.601Z,2.83
2022-12-12T18:24:20.984Z,2.70
2022-12-12T18:26:53.849Z,2.70
2022-12-12T18:29:22.695Z,2.68
2022-12-12T18:31:52.893Z,2.65
2022-12-12T18:34:21.561Z,2.65
2022-12-12T18:36:50.318Z,2.63
2022-12-12T18:39:19.202Z,2.59
2022-12-12T18:41:48.591Z,2.55
2022-12-12T18:44:17.356Z,2.55
2022-12-12T18:46:46.013Z,2.48
2022-12-12T18:49:18.218Z,2.43
2022-12-12T18:51:48.085Z,2.33
2022-12-12T18:54:17.546Z,2.34
2022-12-12T18:56:47.497Z,2.29
2022-12-12T18:59:17.327Z,2.27
2022-12-12T19:01:45.844Z,2.22
2022-12-12T19:04:22.696Z,2.19
2022-12-12T19:06:53.332Z,2.18
2022-12-12T19:09:22.457Z,2.24
2022-12-12T19:11:55.587Z,2.18
2022-12-12T19:14:45.883Z,2.09
2022-12-12T19:17:25.388Z,2.05
2022-12-12T19:19:56.005Z,2.06
2022-12-12T19:22:44.509Z,1.97
2022-12-12T19:25:13.482Z,1.93
2022-12-12T19:27:42.214Z,2.07
2022-12-12T19:30:13.558Z,2.08
2022-12-12T19:32:43.230Z,2.05
2022-12-12T19:35:12.945Z,2.01
2022-12-12T19:37:41.307Z,2.08
2022-12-12T19:40:12.103Z,2.07
2022-12-12T19:42:41.128Z,2.15
2022-12-12T19:45:11.029Z,2.16
2022-12-12T19:47:39.340Z,2.22
2022-12-12T19:50:08.238Z,2.27
2022-12-12T19:52:37.920Z,2.26
2022-12-12T19:55:07.534Z,2.25
2022-12-12T19:57:35.839Z,2.20
2022-12-12T20:00:04.866Z,2.16
2022-12-12T20:02:37.856Z,2.09
2022-12-12T20:05:06.938Z,2.08
2022-12-12T20:07:35.329Z,2.08
2022-12-12T20:10:05.899Z,1.93
2022-12-12T20:12:34.288Z,1.89
2022-12-12T20:15:04.103Z,1.94
2022-12-12T20:17:32.402Z,2.04
2022-12-12T20:20:00.724Z,2.04
2022-12-12T20:22:29.004Z,2.04
2022-12-12T20:24:57.318Z,2.02
2022-12-12T20:27:28.820Z,2.03
2022-12-12T20:29:57.280Z,1.98
2022-12-12T20:32:25.896Z,1.96
2022-12-12T20:34:54.128Z,1.98
2022-12-12T20:37:22.416Z,1.97
2022-12-12T20:39:50.800Z,1.99
2022-12-12T20:42:18.903Z,1.99
2022-12-12T20:44:49.911Z,1.98
2022-12-12T20:47:18.257Z,1.95
2022-12-12T20:49:48.226Z,1.88
2022-12-12T20:52:16.318Z,1.85
2022-12-12T20:54:44.428Z,1.75
2022-12-12T20:57:12.536Z,1.71
2022-12-12T20:59:40.625Z,1.59
2022-12-12T21:02:12.416Z,1.58
2022-12-12T21:04:40.778Z,1.52
2022-12-12T21:07:09.541Z,1.51
2022-12-12T21:09:37.879Z,1.42
2022-12-12T21:12:06.470Z,1.31
2022-12-12T21:14:36.985Z,1.35
2022-12-12T21:17:05.229Z,1.31
2022-12-12T21:19:35.761Z,1.30
2022-12-12T21:22:05.504Z,1.23
2022-12-12T21:24:33.621Z,1.26
2022-12-12T21:27:01.700Z,1.27
2022-12-12T21:29:29.816Z,1.30
2022-12-12T21:31:57.979Z,1.35
2022-12-12T21:34:26.131Z,1.32
2022-12-12T21:36:56.878Z,1.25
2022-12-12T21:39:27.668Z,1.16
2022-12-12T21:41:55.844Z,1.15
2022-12-12T21:44:24.251Z,1.14
2022-12-12T21:46:53.198Z,0.93
2022-12-12T21:49:26.285Z,0.90
2022-12-12T21:51:59.067Z,0.82
2022-12-12T21:54:29.048Z,0.78
2022-12-12T21:56:57.911Z,0.69
2022-12-12T21:59:27.011Z,0.69
2022-12-12T22:01:56.638Z,0.65
2022-12-12T22:04:25.487Z,0.50
2022-12-12T22:06:53.904Z,0.46
2022-12-12T22:09:23.658Z,0.41
2022-12-12T22:11:52.465Z,0.49
2022-12-12T22:14:32.312Z,0.40
2022-12-12T22:17:01.885Z,0.42
2022-12-12T22:19:30.120Z,0.42
2022-12-12T22:21:58.267Z,0.38
2022-12-12T22:24:27.678Z,0.36
2022-12-12T22:26:55.787Z,0.34
2022-12-12T22:29:23.952Z,0.41
2022-12-12T22:31:52.487Z,0.39
2022-12-12T22:34:23.774Z,0.37
2022-12-12T22:36:53.608Z,0.42
2022-12-12T22:39:24.260Z,0.33
2022-12-12T22:41:54.696Z,0.37
2022-12-12T22:44:25.199Z,0.36
2022-12-12T22:46:55.679Z,0.37
2022-12-12T22:49:26.633Z,0.34
2022-12-12T22:51:56.400Z,0.40
2022-12-12T22:54:25.014Z,0.41
2022-12-12T22:56:54.743Z,0.40
2022-12-12T22:59:25.325Z,0.33
2022-12-12T23:02:00.536Z,0.32
2022-12-12T23:04:28.680Z,0.37
2022-12-12T23:06:56.835Z,0.45
2022-12-12T23:09:26.962Z,0.41
2022-12-12T23:11:57.602Z,0.44
2022-12-12T23:14:27.202Z,0.44
2022-12-12T23:16:56.244Z,0.46
2022-12-12T23:19:26.182Z,0.50
2022-12-12T23:21:54.446Z,0.40
2022-12-12T23:24:22.601Z,0.35
2022-12-12T23:26:52.706Z,0.23
2022-12-12T23:29:22.330Z,0.19
2022-12-12T23:31:50.516Z,0.13
2022-12-12T23:34:23.084Z,0.08
2022-12-12T23:36:54.932Z,0.03
2022-12-12T23:39:24.361Z,0.01
2022-12-12T23:41:52.840Z,-0.09
2022-12-12T23:44:24.598Z,-0.11
2022-12-12T23:46:52.843Z,-0.24
2022-12-12T23:49:23.908Z,-0.22
2022-12-12T23:51:54.619Z,-0.18
2022-12-12T23:54:26.751Z,-0.14
2022-12-12T23:56:56.030Z,-0.18
2022-12-12T23:59:27.502Z,-0.12
